sensor_id;sensor_type;location;lat;lon;timestamp;temperature;humidity
23721;DHT22;42950;52.134;5.578;2022-08-07T00:01:55;15.30;99.90
23721;DHT22;42950;52.134;5.578;2022-08-07T00:04:22;15.20;99.90
23721;DHT22;42950;52.134;5.578;2022-08-07T00:06:48;15.20;99.90
23721;DHT22;42950;52.134;5.578;2022-08-07T00:09:14;15.20;99.90
23721;DHT22;42950;52.134;5.578;2022-08-07T00:11:40;15.20;99.90
23721;DHT22;42950;52.134;5.578;2022-08-07T00:14:05;15.20;99.90
23721;DHT22;42950;52.134;5.578;2022-08-07T00:16:31;15.20;99.90
23721;DHT22;42950;52.134;5.578;2022-08-07T00:18:56;15.20;99.90
23721;DHT22;42950;52.134;5.578;2022-08-07T00:21:22;15.20;99.90
23721;DHT22;42950;52.134;5.578;2022-08-07T00:23:50;15.20;99.90
23721;DHT22;42950;52.134;5.578;2022-08-07T00:26:16;15.10;99.90
23721;DHT22;42950;52.134;5.578;2022-08-07T00:28:42;15.20;99.90
23721;DHT22;42950;52.134;5.578;2022-08-07T00:31:09;15.20;99.90
23721;DHT22;42950;52.134;5.578;2022-08-07T00:33:37;15.20;99.90
23721;DHT22;42950;52.134;5.578;2022-08-07T00:36:04;15.10;99.90
23721;DHT22;42950;52.134;5.578;2022-08-07T00:38:30;15.10;99.90
23721;DHT22;42950;52.134;5.578;2022-08-07T00:40:57;15.10;99.90
23721;DHT22;42950;52.134;5.578;2022-08-07T00:43:23;15.10;99.90
23721;DHT22;42950;52.134;5.578;2022-08-07T00:45:48;15.10;99.90
23721;DHT22;42950;52.134;5.578;2022-08-07T00:48:14;15.10;99.90
23721;DHT22;42950;52.134;5.578;2022-08-07T00:50:40;15.00;99.90
23721;DHT22;42950;52.134;5.578;2022-08-07T00:53:06;15.00;99.90
23721;DHT22;42950;52.134;5.578;2022-08-07T00:55:32;14.90;99.90
23721;DHT22;42950;52.134;5.578;2022-08-07T00:57:58;14.80;99.90
23721;DHT22;42950;52.134;5.578;2022-08-07T01:00:23;14.70;99.90
23721;DHT22;42950;52.134;5.578;2022-08-07T01:02:49;14.70;99.90
23721;DHT22;42950;52.134;5.578;2022-08-07T01:05:16;14.70;99.90
23721;DHT22;42950;52.134;5.578;2022-08-07T01:07:42;14.70;99.90
23721;DHT22;42950;52.134;5.578;2022-08-07T01:10:08;14.60;99.90
23721;DHT22;42950;52.134;5.578;2022-08-07T01:12:35;14.50;99.90
23721;DHT22;42950;52.134;5.578;2022-08-07T01:15:03;14.50;99.90
23721;DHT22;42950;52.134;5.578;2022-08-07T01:17:29;14.50;99.90
23721;DHT22;42950;52.134;5.578;2022-08-07T01:20:02;14.40;99.90
23721;DHT22;42950;52.134;5.578;2022-08-07T01:22:29;14.40;99.90
23721;DHT22;42950;52.134;5.578;2022-08-07T01:24:56;14.30;99.90
23721;DHT22;42950;52.134;5.578;2022-08-07T01:27:22;14.30;99.90
23721;DHT22;42950;52.134;5.578;2022-08-07T01:29:48;14.30;99.90
23721;DHT22;42950;52.134;5.578;2022-08-07T01:32:15;14.40;99.90
23721;DHT22;42950;52.134;5.578;2022-08-07T01:34:42;14.40;99.90
23721;DHT22;42950;52.134;5.578;2022-08-07T01:37:10;14.40;99.90
23721;DHT22;42950;52.134;5.578;2022-08-07T01:39:39;14.40;99.90
23721;DHT22;42950;52.134;5.578;2022-08-07T01:42:05;14.30;99.90
23721;DHT22;42950;52.134;5.578;2022-08-07T01:44:31;14.30;99.90
23721;DHT22;42950;52.134;5.578;2022-08-07T01:46:57;14.30;99.90
23721;DHT22;42950;52.134;5.578;2022-08-07T01:49:24;14.30;99.90
23721;DHT22;42950;52.134;5.578;2022-08-07T01:51:50;14.30;99.90
23721;DHT22;42950;52.134;5.578;2022-08-07T01:54:18;14.20;99.90
23721;DHT22;42950;52.134;5.578;2022-08-07T01:56:51;14.20;99.90
23721;DHT22;42950;52.134;5.578;2022-08-07T01:59:26;14.10;99.90
23721;DHT22;42950;52.134;5.578;2022-08-07T02:01:58;14.00;99.90
23721;DHT22;42950;52.134;5.578;2022-08-07T02:07:38;14.00;99.90
23721;DHT22;42950;52.134;5.578;2022-08-07T02:10:06;14.00;99.90
23721;DHT22;42950;52.134;5.578;2022-08-07T02:12:35;14.00;99.90
23721;DHT22;42950;52.134;5.578;2022-08-07T02:15:03;13.90;99.90
23721;DHT22;42950;52.134;5.578;2022-08-07T02:17:30;13.90;99.90
23721;DHT22;42950;52.134;5.578;2022-08-07T02:19:58;14.00;99.90
23721;DHT22;42950;52.134;5.578;2022-08-07T02:22:26;13.90;99.90
23721;DHT22;42950;52.134;5.578;2022-08-07T02:24:54;13.90;99.90
23721;DHT22;42950;52.134;5.578;2022-08-07T02:27:22;13.90;99.90
23721;DHT22;42950;52.134;5.578;2022-08-07T02:29:50;13.80;99.90
23721;DHT22;42950;52.134;5.578;2022-08-07T02:32:17;13.70;99.90
23721;DHT22;42950;52.134;5.578;2022-08-07T02:34:44;13.70;99.90
23721;DHT22;42950;52.134;5.578;2022-08-07T02:37:11;13.60;99.90
23721;DHT22;42950;52.134;5.578;2022-08-07T02:39:43;13.40;99.90
23721;DHT22;42950;52.134;5.578;2022-08-07T02:42:11;13.40;99.90
23721;DHT22;42950;52.134;5.578;2022-08-07T02:44:40;13.40;99.90
23721;DHT22;42950;52.134;5.578;2022-08-07T02:47:07;13.40;99.90
23721;DHT22;42950;52.134;5.578;2022-08-07T02:49:34;13.40;99.90
23721;DHT22;42950;52.134;5.578;2022-08-07T02:52:02;13.40;99.90
23721;DHT22;42950;52.134;5.578;2022-08-07T02:54:30;13.40;99.90
23721;DHT22;42950;52.134;5.578;2022-08-07T02:57:00;13.40;99.90
23721;DHT22;42950;52.134;5.578;2022-08-07T02:59:27;13.40;99.90
23721;DHT22;42950;52.134;5.578;2022-08-07T03:01:54;13.40;99.90
23721;DHT22;42950;52.134;5.578;2022-08-07T03:04:22;13.40;99.90
23721;DHT22;42950;52.134;5.578;2022-08-07T03:06:49;13.40;99.90
23721;DHT22;42950;52.134;5.578;2022-08-07T03:09:17;13.30;99.90
23721;DHT22;42950;52.134;5.578;2022-08-07T03:11:44;13.30;99.90
23721;DHT22;42950;52.134;5.578;2022-08-07T03:14:12;13.30;99.90
23721;DHT22;42950;52.134;5.578;2022-08-07T03:16:39;13.30;99.90
23721;DHT22;42950;52.134;5.578;2022-08-07T03:19:05;13.20;99.90
23721;DHT22;42950;52.134;5.578;2022-08-07T03:21:32;13.20;99.90
23721;DHT22;42950;52.134;5.578;2022-08-07T03:23:58;13.20;99.90
23721;DHT22;42950;52.134;5.578;2022-08-07T03:26:27;13.30;99.90
23721;DHT22;42950;52.134;5.578;2022-08-07T03:28:55;13.20;99.90
23721;DHT22;42950;52.134;5.578;2022-08-07T03:31:23;13.10;99.90
23721;DHT22;42950;52.134;5.578;2022-08-07T03:33:55;13.20;99.90
23721;DHT22;42950;52.134;5.578;2022-08-07T03:36:23;13.10;99.90
23721;DHT22;42950;52.134;5.578;2022-08-07T03:38:51;13.10;99.90
23721;DHT22;42950;52.134;5.578;2022-08-07T03:41:18;13.10;99.90
23721;DHT22;42950;52.134;5.578;2022-08-07T03:43:44;13.00;99.90
23721;DHT22;42950;52.134;5.578;2022-08-07T03:46:11;13.00;99.90
23721;DHT22;42950;52.134;5.578;2022-08-07T03:48:38;13.00;99.90
23721;DHT22;42950;52.134;5.578;2022-08-07T03:51:05;13.10;99.90
23721;DHT22;42950;52.134;5.578;2022-08-07T03:53:31;13.10;99.90
23721;DHT22;42950;52.134;5.578;2022-08-07T03:55:58;13.20;99.90
23721;DHT22;42950;52.134;5.578;2022-08-07T03:58:27;13.10;99.90
23721;DHT22;42950;52.134;5.578;2022-08-07T04:00:56;13.10;99.90
23721;DHT22;42950;52.134;5.578;2022-08-07T04:03:22;13.10;99.90
23721;DHT22;42950;52.134;5.578;2022-08-07T04:05:48;13.10;99.90
23721;DHT22;42950;52.134;5.578;2022-08-07T04:08:14;13.10;99.90
23721;DHT22;42950;52.134;5.578;2022-08-07T04:10:42;13.00;99.90
23721;DHT22;42950;52.134;5.578;2022-08-07T04:13:12;13.00;99.90
23721;DHT22;42950;52.134;5.578;2022-08-07T04:15:39;13.10;99.90
23721;DHT22;42950;52.134;5.578;2022-08-07T04:18:07;13.00;99.90
23721;DHT22;42950;52.134;5.578;2022-08-07T04:20:33;13.10;99.90
23721;DHT22;42950;52.134;5.578;2022-08-07T04:22:59;13.00;99.90
23721;DHT22;42950;52.134;5.578;2022-08-07T04:25:25;13.00;99.90
23721;DHT22;42950;52.134;5.578;2022-08-07T04:27:51;13.00;99.90
23721;DHT22;42950;52.134;5.578;2022-08-07T04:30:17;13.00;99.90
23721;DHT22;42950;52.134;5.578;2022-08-07T04:32:43;13.00;99.90
23721;DHT22;42950;52.134;5.578;2022-08-07T04:35:09;12.90;99.90
23721;DHT22;42950;52.134;5.578;2022-08-07T04:37:35;12.90;99.90
23721;DHT22;42950;52.134;5.578;2022-08-07T04:40:02;12.90;99.90
23721;DHT22;42950;52.134;5.578;2022-08-07T04:42:28;12.90;99.90
23721;DHT22;42950;52.134;5.578;2022-08-07T04:44:57;12.90;99.90
23721;DHT22;42950;52.134;5.578;2022-08-07T04:50:05;12.70;99.90
23721;DHT22;42950;52.134;5.578;2022-08-07T04:52:42;12.70;99.90
23721;DHT22;42950;52.134;5.578;2022-08-07T04:58:21;12.80;99.90
23721;DHT22;42950;52.134;5.578;2022-08-07T05:00:58;12.90;99.90
23721;DHT22;42950;52.134;5.578;2022-08-07T05:03:48;12.90;99.90
23721;DHT22;42950;52.134;5.578;2022-08-07T05:06:24;13.00;99.90
23721;DHT22;42950;52.134;5.578;2022-08-07T05:11:46;13.00;99.90
23721;DHT22;42950;52.134;5.578;2022-08-07T05:16:48;13.10;99.90
23721;DHT22;42950;52.134;5.578;2022-08-07T05:19:19;13.10;99.90
23721;DHT22;42950;52.134;5.578;2022-08-07T05:21:52;13.20;99.90
23721;DHT22;42950;52.134;5.578;2022-08-07T05:24:20;13.20;99.90
23721;DHT22;42950;52.134;5.578;2022-08-07T05:26:47;13.20;99.90
23721;DHT22;42950;52.134;5.578;2022-08-07T05:29:17;13.30;99.90
23721;DHT22;42950;52.134;5.578;2022-08-07T05:31:47;13.40;99.90
23721;DHT22;42950;52.134;5.578;2022-08-07T05:34:15;13.50;99.90
23721;DHT22;42950;52.134;5.578;2022-08-07T05:36:43;13.50;99.90
23721;DHT22;42950;52.134;5.578;2022-08-07T05:39:10;13.50;99.90
23721;DHT22;42950;52.134;5.578;2022-08-07T05:41:38;13.50;99.90
23721;DHT22;42950;52.134;5.578;2022-08-07T05:44:06;13.60;99.90
23721;DHT22;42950;52.134;5.578;2022-08-07T05:46:34;13.60;99.90
23721;DHT22;42950;52.134;5.578;2022-08-07T05:49:00;13.70;99.90
23721;DHT22;42950;52.134;5.578;2022-08-07T05:51:29;13.80;99.90
23721;DHT22;42950;52.134;5.578;2022-08-07T05:53:54;13.80;99.90
23721;DHT22;42950;52.134;5.578;2022-08-07T05:56:20;13.90;99.90
23721;DHT22;42950;52.134;5.578;2022-08-07T05:58:47;14.00;99.90
23721;DHT22;42950;52.134;5.578;2022-08-07T06:01:14;14.00;99.90
23721;DHT22;42950;52.134;5.578;2022-08-07T06:03:48;14.00;99.90
23721;DHT22;42950;52.134;5.578;2022-08-07T06:06:16;14.10;99.90
23721;DHT22;42950;52.134;5.578;2022-08-07T06:08:42;14.20;99.90
23721;DHT22;42950;52.134;5.578;2022-08-07T06:11:09;14.20;99.90
23721;DHT22;42950;52.134;5.578;2022-08-07T06:13:36;14.30;99.90
23721;DHT22;42950;52.134;5.578;2022-08-07T06:16:02;14.30;99.90
23721;DHT22;42950;52.134;5.578;2022-08-07T06:18:31;14.50;99.90
23721;DHT22;42950;52.134;5.578;2022-08-07T06:21:00;14.70;99.90
23721;DHT22;42950;52.134;5.578;2022-08-07T06:23:27;14.70;99.90
23721;DHT22;42950;52.134;5.578;2022-08-07T06:25:53;14.80;99.90
23721;DHT22;42950;52.134;5.578;2022-08-07T06:28:20;14.90;99.90
23721;DHT22;42950;52.134;5.578;2022-08-07T06:30:46;14.90;99.90
23721;DHT22;42950;52.134;5.578;2022-08-07T06:33:12;14.90;99.90
23721;DHT22;42950;52.134;5.578;2022-08-07T06:35:37;15.00;99.90
23721;DHT22;42950;52.134;5.578;2022-08-07T06:38:04;15.00;99.90
23721;DHT22;42950;52.134;5.578;2022-08-07T06:40:38;15.10;99.90
23721;DHT22;42950;52.134;5.578;2022-08-07T06:43:06;15.20;99.90
23721;DHT22;42950;52.134;5.578;2022-08-07T06:45:33;15.20;99.90
23721;DHT22;42950;52.134;5.578;2022-08-07T06:47:59;15.30;99.90
23721;DHT22;42950;52.134;5.578;2022-08-07T06:50:27;15.40;99.90
23721;DHT22;42950;52.134;5.578;2022-08-07T06:52:54;15.50;99.90
23721;DHT22;42950;52.134;5.578;2022-08-07T06:55:23;15.50;99.90
23721;DHT22;42950;52.134;5.578;2022-08-07T06:57:50;15.60;99.90
23721;DHT22;42950;52.134;5.578;2022-08-07T07:00:19;15.70;99.90
23721;DHT22;42950;52.134;5.578;2022-08-07T07:02:46;15.80;99.90
23721;DHT22;42950;52.134;5.578;2022-08-07T07:05:12;15.90;99.90
23721;DHT22;42950;52.134;5.578;2022-08-07T07:07:39;16.00;99.90
23721;DHT22;42950;52.134;5.578;2022-08-07T07:10:05;16.10;99.90
23721;DHT22;42950;52.134;5.578;2022-08-07T07:12:45;16.30;99.90
23721;DHT22;42950;52.134;5.578;2022-08-07T07:15:24;16.50;99.90
23721;DHT22;42950;52.134;5.578;2022-08-07T07:20:58;16.80;99.90
23721;DHT22;42950;52.134;5.578;2022-08-07T07:23:26;17.00;99.90
23721;DHT22;42950;52.134;5.578;2022-08-07T07:25:58;17.00;99.90
23721;DHT22;42950;52.134;5.578;2022-08-07T07:28:47;17.10;99.90
23721;DHT22;42950;52.134;5.578;2022-08-07T07:31:25;17.20;99.90
23721;DHT22;42950;52.134;5.578;2022-08-07T07:33:55;17.20;99.90
23721;DHT22;42950;52.134;5.578;2022-08-07T07:36:23;17.30;99.90
23721;DHT22;42950;52.134;5.578;2022-08-07T07:38:50;17.40;99.90
23721;DHT22;42950;52.134;5.578;2022-08-07T07:41:18;17.50;99.90
23721;DHT22;42950;52.134;5.578;2022-08-07T07:43:46;17.60;99.90
23721;DHT22;42950;52.134;5.578;2022-08-07T07:46:14;17.60;99.90
23721;DHT22;42950;52.134;5.578;2022-08-07T07:48:40;17.60;99.90
23721;DHT22;42950;52.134;5.578;2022-08-07T07:51:07;17.70;99.90
23721;DHT22;42950;52.134;5.578;2022-08-07T07:53:37;17.80;99.90
23721;DHT22;42950;52.134;5.578;2022-08-07T07:56:04;17.90;99.90
23721;DHT22;42950;52.134;5.578;2022-08-07T07:58:35;18.00;99.90
23721;DHT22;42950;52.134;5.578;2022-08-07T08:01:02;18.20;99.90
23721;DHT22;42950;52.134;5.578;2022-08-07T08:03:29;18.10;99.90
23721;DHT22;42950;52.134;5.578;2022-08-07T08:05:55;18.20;99.90
23721;DHT22;42950;52.134;5.578;2022-08-07T08:08:27;18.20;99.90
23721;DHT22;42950;52.134;5.578;2022-08-07T08:10:54;18.40;99.90
23721;DHT22;42950;52.134;5.578;2022-08-07T08:13:21;18.50;99.90
23721;DHT22;42950;52.134;5.578;2022-08-07T08:15:49;18.50;99.90
23721;DHT22;42950;52.134;5.578;2022-08-07T08:18:15;18.60;99.90
23721;DHT22;42950;52.134;5.578;2022-08-07T08:20:42;18.70;99.90
23721;DHT22;42950;52.134;5.578;2022-08-07T08:23:09;18.60;99.90
23721;DHT22;42950;52.134;5.578;2022-08-07T08:25:55;18.80;99.90
23721;DHT22;42950;52.134;5.578;2022-08-07T08:28:37;19.00;99.90
23721;DHT22;42950;52.134;5.578;2022-08-07T08:31:08;19.00;99.90
23721;DHT22;42950;52.134;5.578;2022-08-07T08:33:36;19.10;99.90
23721;DHT22;42950;52.134;5.578;2022-08-07T08:36:04;19.00;99.90
23721;DHT22;42950;52.134;5.578;2022-08-07T08:38:35;19.30;99.90
23721;DHT22;42950;52.134;5.578;2022-08-07T08:41:12;19.60;99.90
23721;DHT22;42950;52.134;5.578;2022-08-07T08:44:17;19.70;99.90
23721;DHT22;42950;52.134;5.578;2022-08-07T08:46:55;19.70;99.90
23721;DHT22;42950;52.134;5.578;2022-08-07T08:49:32;19.90;99.90
23721;DHT22;42950;52.134;5.578;2022-08-07T08:52:21;20.20;99.90
23721;DHT22;42950;52.134;5.578;2022-08-07T08:57:43;20.30;99.90
23721;DHT22;42950;52.134;5.578;2022-08-07T09:00:11;20.40;99.90
23721;DHT22;42950;52.134;5.578;2022-08-07T09:05:39;20.50;99.90
23721;DHT22;42950;52.134;5.578;2022-08-07T09:11:18;20.60;99.90
23721;DHT22;42950;52.134;5.578;2022-08-07T09:14:01;20.60;99.90
23721;DHT22;42950;52.134;5.578;2022-08-07T09:17:20;20.80;99.90
23721;DHT22;42950;52.134;5.578;2022-08-07T09:20:28;20.90;99.90
23721;DHT22;42950;52.134;5.578;2022-08-07T09:23:12;21.10;99.90
23721;DHT22;42950;52.134;5.578;2022-08-07T09:28:32;21.90;99.90
23721;DHT22;42950;52.134;5.578;2022-08-07T09:31:15;22.10;99.90
23721;DHT22;42950;52.134;5.578;2022-08-07T09:36:40;22.50;99.90
23721;DHT22;42950;52.134;5.578;2022-08-07T09:47:16;22.90;99.90
23721;DHT22;42950;52.134;5.578;2022-08-07T10:03:35;22.50;99.90
23721;DHT22;42950;52.134;5.578;2022-08-07T10:09:28;23.20;99.90
23721;DHT22;42950;52.134;5.578;2022-08-07T10:20:09;23.40;99.90
23721;DHT22;42950;52.134;5.578;2022-08-07T10:30:53;22.80;99.90
23721;DHT22;42950;52.134;5.578;2022-08-07T10:41:26;23.80;99.90
23721;DHT22;42950;52.134;5.578;2022-08-07T10:44:11;24.30;99.90
23721;DHT22;42950;52.134;5.578;2022-08-07T10:46:59;24.80;99.90
23721;DHT22;42950;52.134;5.578;2022-08-07T10:49:39;24.50;99.90
23721;DHT22;42950;52.134;5.578;2022-08-07T10:52:09;24.80;99.90
23721;DHT22;42950;52.134;5.578;2022-08-07T10:54:43;24.90;99.90
23721;DHT22;42950;52.134;5.578;2022-08-07T11:02:21;24.40;99.90
23721;DHT22;42950;52.134;5.578;2022-08-07T11:05:15;24.60;99.90
23721;DHT22;42950;52.134;5.578;2022-08-07T11:10:30;25.20;99.90
23721;DHT22;42950;52.134;5.578;2022-08-07T11:13:03;24.50;99.90
23721;DHT22;42950;52.134;5.578;2022-08-07T11:15:37;24.40;99.90
23721;DHT22;42950;52.134;5.578;2022-08-07T11:18:17;24.60;99.90
23721;DHT22;42950;52.134;5.578;2022-08-07T11:21:46;24.90;99.90
23721;DHT22;42950;52.134;5.578;2022-08-07T11:24:04;25.20;99.90
23721;DHT22;42950;52.134;5.578;2022-08-07T11:26:54;25.50;99.90
23721;DHT22;42950;52.134;5.578;2022-08-07T11:32:33;25.70;99.90
23721;DHT22;42950;52.134;5.578;2022-08-07T11:35:06;25.90;99.90
23721;DHT22;42950;52.134;5.578;2022-08-07T11:43:08;25.70;99.90
23721;DHT22;42950;52.134;5.578;2022-08-07T11:48:53;26.20;99.90
23721;DHT22;42950;52.134;5.578;2022-08-07T11:54:21;25.40;99.90
23721;DHT22;42950;52.134;5.578;2022-08-07T12:07:26;26.00;99.90
23721;DHT22;42950;52.134;5.578;2022-08-07T12:09:58;26.20;99.90
23721;DHT22;42950;52.134;5.578;2022-08-07T12:12:41;26.10;99.90
23721;DHT22;42950;52.134;5.578;2022-08-07T12:15:14;25.80;99.90
23721;DHT22;42950;52.134;5.578;2022-08-07T12:17:47;25.90;99.90
23721;DHT22;42950;52.134;5.578;2022-08-07T12:20:37;25.90;99.90
23721;DHT22;42950;52.134;5.578;2022-08-07T12:26:00;25.10;99.90
23721;DHT22;42950;52.134;5.578;2022-08-07T12:28:29;25.00;99.90
23721;DHT22;42950;52.134;5.578;2022-08-07T12:31:01;25.30;99.90
23721;DHT22;42950;52.134;5.578;2022-08-07T12:33:30;25.80;99.90
23721;DHT22;42950;52.134;5.578;2022-08-07T12:35:57;25.50;99.90
23721;DHT22;42950;52.134;5.578;2022-08-07T12:38:24;25.40;98.70
23721;DHT22;42950;52.134;5.578;2022-08-07T12:40:52;25.80;99.90
23721;DHT22;42950;52.134;5.578;2022-08-07T12:43:22;26.10;99.90
23721;DHT22;42950;52.134;5.578;2022-08-07T12:48:35;26.00;99.10
23721;DHT22;42950;52.134;5.578;2022-08-07T12:51:15;25.80;99.90
23721;DHT22;42950;52.134;5.578;2022-08-07T12:53:48;26.10;99.90
23721;DHT22;42950;52.134;5.578;2022-08-07T12:58:49;27.00;99.00
23721;DHT22;42950;52.134;5.578;2022-08-07T13:12:13;26.60;99.90
23721;DHT22;42950;52.134;5.578;2022-08-07T13:17:58;25.70;99.90
23721;DHT22;42950;52.134;5.578;2022-08-07T13:23:19;24.50;99.90
23721;DHT22;42950;52.134;5.578;2022-08-07T13:26:02;24.50;99.90
23721;DHT22;42950;52.134;5.578;2022-08-07T13:28:36;24.90;99.90
23721;DHT22;42950;52.134;5.578;2022-08-07T13:31:11;25.20;99.90
23721;DHT22;42950;52.134;5.578;2022-08-07T13:33:47;25.30;99.90
23721;DHT22;42950;52.134;5.578;2022-08-07T13:36:42;25.40;99.90
23721;DHT22;42950;52.134;5.578;2022-08-07T13:39:25;25.30;99.90
23721;DHT22;42950;52.134;5.578;2022-08-07T13:41:52;24.90;99.90
23721;DHT22;42950;52.134;5.578;2022-08-07T13:44:22;24.90;99.90
23721;DHT22;42950;52.134;5.578;2022-08-07T13:46:51;25.10;99.90
23721;DHT22;42950;52.134;5.578;2022-08-07T13:49:19;25.30;99.90
23721;DHT22;42950;52.134;5.578;2022-08-07T13:51:48;25.20;99.90
23721;DHT22;42950;52.134;5.578;2022-08-07T13:54:14;25.20;99.90
23721;DHT22;42950;52.134;5.578;2022-08-07T13:56:42;25.10;99.90
23721;DHT22;42950;52.134;5.578;2022-08-07T13:59:16;24.90;99.90
23721;DHT22;42950;52.134;5.578;2022-08-07T14:02:05;25.10;99.90
23721;DHT22;42950;52.134;5.578;2022-08-07T14:07:08;25.70;99.90
23721;DHT22;42950;52.134;5.578;2022-08-07T14:09:37;25.40;99.90
23721;DHT22;42950;52.134;5.578;2022-08-07T14:12:07;24.90;99.90
23721;DHT22;42950;52.134;5.578;2022-08-07T14:14:47;25.10;99.90
23721;DHT22;42950;52.134;5.578;2022-08-07T14:17:16;25.30;99.90
23721;DHT22;42950;52.134;5.578;2022-08-07T14:22:21;25.20;99.90
23721;DHT22;42950;52.134;5.578;2022-08-07T14:24:51;24.90;99.90
23721;DHT22;42950;52.134;5.578;2022-08-07T14:27:28;24.60;99.90
23721;DHT22;42950;52.134;5.578;2022-08-07T14:29:57;24.50;99.90
23721;DHT22;42950;52.134;5.578;2022-08-07T14:32:26;24.90;99.90
23721;DHT22;42950;52.134;5.578;2022-08-07T14:34:54;25.10;99.90
23721;DHT22;42950;52.134;5.578;2022-08-07T14:37:25;25.50;99.90
23721;DHT22;42950;52.134;5.578;2022-08-07T14:39:52;25.60;99.90
23721;DHT22;42950;52.134;5.578;2022-08-07T14:42:24;25.40;99.60
23721;DHT22;42950;52.134;5.578;2022-08-07T14:44:52;25.20;99.90
23721;DHT22;42950;52.134;5.578;2022-08-07T14:47:22;25.30;99.70
23721;DHT22;42950;52.134;5.578;2022-08-07T14:49:49;25.10;99.90
23721;DHT22;42950;52.134;5.578;2022-08-07T14:52:18;25.10;99.90
23721;DHT22;42950;52.134;5.578;2022-08-07T14:54:48;25.20;99.90
23721;DHT22;42950;52.134;5.578;2022-08-07T14:57:15;25.40;99.90
23721;DHT22;42950;52.134;5.578;2022-08-07T14:59:44;25.60;99.90
23721;DHT22;42950;52.134;5.578;2022-08-07T15:02:12;25.70;99.90
23721;DHT22;42950;52.134;5.578;2022-08-07T15:04:44;25.20;99.90
23721;DHT22;42950;52.134;5.578;2022-08-07T15:07:17;25.10;99.90
23721;DHT22;42950;52.134;5.578;2022-08-07T15:09:46;25.60;99.90
23721;DHT22;42950;52.134;5.578;2022-08-07T15:12:21;25.40;99.90
23721;DHT22;42950;52.134;5.578;2022-08-07T15:14:49;25.30;99.90
23721;DHT22;42950;52.134;5.578;2022-08-07T15:17:19;25.20;99.90
23721;DHT22;42950;52.134;5.578;2022-08-07T15:19:59;25.30;99.90
23721;DHT22;42950;52.134;5.578;2022-08-07T15:22:31;25.20;99.90
23721;DHT22;42950;52.134;5.578;2022-08-07T15:25:01;25.20;99.90
23721;DHT22;42950;52.134;5.578;2022-08-07T15:27:28;25.40;99.90
23721;DHT22;42950;52.134;5.578;2022-08-07T15:30:02;25.10;99.90
23721;DHT22;42950;52.134;5.578;2022-08-07T15:32:32;24.80;99.90
23721;DHT22;42950;52.134;5.578;2022-08-07T15:34:59;25.10;99.90
23721;DHT22;42950;52.134;5.578;2022-08-07T15:37:30;25.50;99.90
23721;DHT22;42950;52.134;5.578;2022-08-07T15:39:58;25.50;99.90
23721;DHT22;42950;52.134;5.578;2022-08-07T15:42:35;25.70;99.90
23721;DHT22;42950;52.134;5.578;2022-08-07T15:45:03;25.70;99.90
23721;DHT22;42950;52.134;5.578;2022-08-07T15:47:35;25.50;99.90
23721;DHT22;42950;52.134;5.578;2022-08-07T15:50:05;25.20;99.90
23721;DHT22;42950;52.134;5.578;2022-08-07T15:52:33;25.10;99.90
23721;DHT22;42950;52.134;5.578;2022-08-07T15:55:03;24.90;99.90
23721;DHT22;42950;52.134;5.578;2022-08-07T15:57:31;24.90;99.90
23721;DHT22;42950;52.134;5.578;2022-08-07T15:59:59;24.90;99.90
23721;DHT22;42950;52.134;5.578;2022-08-07T16:02:27;24.90;99.90
23721;DHT22;42950;52.134;5.578;2022-08-07T16:05:00;25.00;99.90
23721;DHT22;42950;52.134;5.578;2022-08-07T16:07:39;25.30;99.90
23721;DHT22;42950;52.134;5.578;2022-08-07T16:15:23;25.20;99.90
23721;DHT22;42950;52.134;5.578;2022-08-07T16:18:02;25.00;99.90
23721;DHT22;42950;52.134;5.578;2022-08-07T16:26:02;24.70;99.90
23721;DHT22;42950;52.134;5.578;2022-08-07T16:31:25;24.70;99.90
23721;DHT22;42950;52.134;5.578;2022-08-07T16:33:56;24.20;99.90
23721;DHT22;42950;52.134;5.578;2022-08-07T16:45:24;24.40;99.90
23721;DHT22;42950;52.134;5.578;2022-08-07T16:48:24;24.20;99.90
23721;DHT22;42950;52.134;5.578;2022-08-07T16:53:46;24.20;99.90
23721;DHT22;42950;52.134;5.578;2022-08-07T16:56:48;24.10;99.90
23721;DHT22;42950;52.134;5.578;2022-08-07T16:59:35;23.90;99.90
23721;DHT22;42950;52.134;5.578;2022-08-07T17:02:20;23.70;99.90
23721;DHT22;42950;52.134;5.578;2022-08-07T17:08:04;23.30;99.90
23721;DHT22;42950;52.134;5.578;2022-08-07T17:10:47;23.20;99.90
23721;DHT22;42950;52.134;5.578;2022-08-07T17:16:18;23.10;99.90
23721;DHT22;42950;52.134;5.578;2022-08-07T17:18:59;23.10;99.90
23721;DHT22;42950;52.134;5.578;2022-08-07T17:21:44;22.90;99.90
23721;DHT22;42950;52.134;5.578;2022-08-07T17:24:40;22.80;99.90
23721;DHT22;42950;52.134;5.578;2022-08-07T17:27:10;23.00;99.90
23721;DHT22;42950;52.134;5.578;2022-08-07T17:30:03;22.90;99.90
23721;DHT22;42950;52.134;5.578;2022-08-07T17:32:46;22.80;99.90
23721;DHT22;42950;52.134;5.578;2022-08-07T17:40:44;22.80;99.90
23721;DHT22;42950;52.134;5.578;2022-08-07T17:43:15;22.80;99.90
23721;DHT22;42950;52.134;5.578;2022-08-07T17:48:22;22.50;99.90
23721;DHT22;42950;52.134;5.578;2022-08-07T17:51:21;22.30;99.90
23721;DHT22;42950;52.134;5.578;2022-08-07T17:54:16;22.30;99.90
23721;DHT22;42950;52.134;5.578;2022-08-07T17:56:50;22.30;99.90
23721;DHT22;42950;52.134;5.578;2022-08-07T17:59:22;22.20;99.90
23721;DHT22;42950;52.134;5.578;2022-08-07T18:01:56;22.20;99.90
23721;DHT22;42950;52.134;5.578;2022-08-07T18:04:33;22.20;99.90
23721;DHT22;42950;52.134;5.578;2022-08-07T18:09:34;22.30;99.90
23721;DHT22;42950;52.134;5.578;2022-08-07T18:12:09;22.20;99.90
23721;DHT22;42950;52.134;5.578;2022-08-07T18:14:43;21.90;99.90
23721;DHT22;42950;52.134;5.578;2022-08-07T18:20:13;21.90;99.90
23721;DHT22;42950;52.134;5.578;2022-08-07T18:23:10;21.90;99.90
23721;DHT22;42950;52.134;5.578;2022-08-07T18:25:42;22.00;99.90
23721;DHT22;42950;52.134;5.578;2022-08-07T18:28:20;21.90;99.90
23721;DHT22;42950;52.134;5.578;2022-08-07T18:30:58;21.70;99.90
23721;DHT22;42950;52.134;5.578;2022-08-07T18:41:50;21.10;99.90
23721;DHT22;42950;52.134;5.578;2022-08-07T18:49:51;21.10;99.90
23721;DHT22;42950;52.134;5.578;2022-08-07T18:55:08;21.10;99.90
23721;DHT22;42950;52.134;5.578;2022-08-07T19:00:34;21.00;99.90
23721;DHT22;42950;52.134;5.578;2022-08-07T19:03:16;21.10;99.90
23721;DHT22;42950;52.134;5.578;2022-08-07T19:05:58;21.00;99.90
23721;DHT22;42950;52.134;5.578;2022-08-07T19:08:29;20.90;99.90
23721;DHT22;42950;52.134;5.578;2022-08-07T19:11:07;20.90;99.90
23721;DHT22;42950;52.134;5.578;2022-08-07T19:19:11;20.50;99.90
23721;DHT22;42950;52.134;5.578;2022-08-07T19:21:58;20.50;99.90
23721;DHT22;42950;52.134;5.578;2022-08-07T19:24:41;20.60;99.90
23721;DHT22;42950;52.134;5.578;2022-08-07T19:27:13;20.50;99.90
23721;DHT22;42950;52.134;5.578;2022-08-07T19:29:41;20.50;99.90
23721;DHT22;42950;52.134;5.578;2022-08-07T19:32:07;20.50;99.90